createdAt,value
2017-05-06T00:00:01.403Z,10.8
2017-05-06T00:05:01.755Z,10.7
2017-05-06T00:10:01.466Z,10.7
2017-05-06T00:15:01.272Z,10.7
2017-05-06T00:20:01.492Z,10.7
2017-05-06T00:25:01.257Z,10.7
2017-05-06T00:30:02.148Z,10.7
2017-05-06T00:35:01.204Z,10.7
2017-05-06T00:40:01.946Z,10.7
2017-05-06T00:45:01.895Z,10.7
2017-05-06T00:50:01.996Z,10.7
2017-05-06T00:55:01.651Z,10.7
2017-05-06T01:00:01.418Z,10.7
2017-05-06T01:05:01.682Z,10.7
2017-05-06T01:10:01.449Z,10.7
2017-05-06T01:15:02.139Z,10.7
2017-05-06T01:20:01.288Z,10.7
2017-05-06T01:25:01.969Z,10.7
2017-05-06T01:30:01.204Z,10.7
2017-05-06T01:35:01.781Z,10.7
2017-05-06T01:40:01.503Z,10.7
2017-05-06T01:45:01.319Z,10.7
2017-05-06T01:50:01.372Z,10.7
2017-05-06T01:55:02.055Z,10.7
2017-05-06T02:00:01.923Z,10.7
2017-05-06T02:05:01.324Z,10.7
2017-05-06T02:10:02.040Z,10.7
2017-05-06T02:15:01.394Z,10.7
2017-05-06T02:20:01.581Z,10.7
2017-05-06T02:25:01.316Z,10.7
2017-05-06T02:30:01.930Z,10.7
2017-05-06T02:35:01.644Z,10.7
2017-05-06T02:40:02.070Z,10.7
2017-05-06T02:45:01.709Z,10.7
2017-05-06T02:50:01.719Z,10.7
2017-05-06T02:55:01.939Z,10.6
2017-05-06T03:00:01.394Z,10.6
2017-05-06T03:05:01.974Z,10.6
2017-05-06T03:10:01.711Z,10.6
2017-05-06T03:15:02.115Z,10.6
2017-05-06T03:20:01.486Z,10.7
2017-05-06T03:25:01.503Z,10.7
2017-05-06T03:30:01.635Z,10.7
2017-05-06T03:35:01.995Z,10.7
2017-05-06T03:40:01.886Z,10.6
2017-05-06T03:45:02.053Z,10.7
2017-05-06T03:50:01.911Z,10.7
2017-05-06T03:55:01.535Z,10.7
2017-05-06T04:00:01.567Z,10.7
2017-05-06T04:05:02.127Z,10.7
2017-05-06T04:10:01.754Z,10.7
2017-05-06T04:15:01.467Z,10.8
2017-05-06T04:20:02.053Z,10.7
2017-05-06T04:25:01.493Z,10.7
2017-05-06T04:30:01.517Z,10.7
2017-05-06T04:35:01.361Z,10.7
2017-05-06T04:40:02.153Z,10.8
2017-05-06T04:45:01.299Z,10.7
2017-05-06T04:50:01.575Z,10.7
2017-05-06T04:55:01.349Z,10.7
2017-05-06T05:00:01.432Z,10.7
2017-05-06T05:05:01.646Z,10.8
2017-05-06T05:10:01.855Z,10.8
2017-05-06T05:15:01.695Z,10.8
2017-05-06T05:20:01.191Z,10.8
2017-05-06T05:25:02.097Z,10.8
2017-05-06T05:30:01.573Z,10.8
2017-05-06T05:35:01.781Z,10.8
2017-05-06T05:40:01.781Z,10.8
2017-05-06T05:45:01.410Z,10.8
2017-05-06T05:50:02.162Z,10.8
2017-05-06T05:55:01.744Z,10.8
2017-05-06T06:00:01.876Z,10.9
2017-05-06T06:05:02.127Z,11
2017-05-06T06:10:01.417Z,11
2017-05-06T06:15:01.931Z,11.1
2017-05-06T06:20:01.534Z,11.1
2017-05-06T06:25:01.541Z,11.1
2017-05-06T06:30:01.848Z,11.1
2017-05-06T06:35:01.505Z,11.2
2017-05-06T06:40:01.313Z,11.2
2017-05-06T06:45:01.868Z,11.3
2017-05-06T06:50:01.816Z,11.2
2017-05-06T06:55:01.253Z,11.2
2017-05-06T07:00:01.537Z,11.2
2017-05-06T07:05:01.700Z,11.3
2017-05-06T07:10:01.742Z,11.4
2017-05-06T07:15:01.492Z,11.5
2017-05-06T07:20:02.108Z,11.4
2017-05-06T07:25:02.117Z,11.4
2017-05-06T07:30:01.549Z,11.4
2017-05-06T07:35:01.427Z,11.5
2017-05-06T07:40:01.224Z,11.6
2017-05-06T07:45:01.862Z,11.6
2017-05-06T07:50:01.877Z,11.5
2017-05-06T07:55:01.997Z,11.6
2017-05-06T08:00:01.260Z,11.6
2017-05-06T08:05:01.450Z,11.7
2017-05-06T08:10:01.364Z,11.6
2017-05-06T08:15:01.914Z,11.8
2017-05-06T08:20:01.438Z,11.8
2017-05-06T08:25:01.517Z,11.8
2017-05-06T08:30:01.816Z,11.8
2017-05-06T08:35:01.706Z,11.9
2017-05-06T08:40:01.868Z,12
2017-05-06T08:45:01.578Z,12
2017-05-06T08:50:01.567Z,12
2017-05-06T08:55:02.104Z,12
2017-05-06T09:00:01.239Z,12.1
2017-05-06T09:05:01.363Z,12.1
2017-05-06T09:10:01.633Z,12.1
2017-05-06T09:15:01.383Z,12
2017-05-06T09:20:02.047Z,12.1
2017-05-06T09:25:01.975Z,12.1
2017-05-06T09:30:01.195Z,12.1
2017-05-06T09:35:01.478Z,12.2
2017-05-06T09:40:01.205Z,12.2
2017-05-06T09:45:01.973Z,12.2
2017-05-06T09:50:01.796Z,12.2
2017-05-06T09:55:01.273Z,12.2
2017-05-06T10:00:01.538Z,12.3
2017-05-06T10:05:01.452Z,12.4
2017-05-06T10:10:01.752Z,12.5
2017-05-06T10:15:01.996Z,12.5
2017-05-06T10:20:01.694Z,12.5
2017-05-06T10:25:01.732Z,12.6
2017-05-06T10:30:02.093Z,12.6
2017-05-06T10:35:01.850Z,12.7
2017-05-06T10:40:01.613Z,12.7
2017-05-06T10:45:01.801Z,12.7
2017-05-06T10:50:01.577Z,12.8
2017-05-06T10:55:02.040Z,12.8
2017-05-06T11:00:01.321Z,12.8
2017-05-06T11:05:01.878Z,12.8
2017-05-06T11:10:01.777Z,12.8
2017-05-06T11:15:01.513Z,12.7
2017-05-06T11:20:01.731Z,12.7
2017-05-06T11:25:01.995Z,12.7
2017-05-06T11:30:01.406Z,12.6
2017-05-06T11:35:01.385Z,12.6
2017-05-06T11:40:01.919Z,12.7
2017-05-06T11:45:01.946Z,12.7
2017-05-06T11:50:01.478Z,12.7
2017-05-06T11:55:01.790Z,12.7
2017-05-06T12:00:02.015Z,12.8
2017-05-06T12:05:02.161Z,12.7
2017-05-06T12:10:02.121Z,12.9
2017-05-06T12:15:01.770Z,13.1
2017-05-06T12:20:01.891Z,13.1
2017-05-06T12:25:02.005Z,13.2
2017-05-06T12:30:01.794Z,13.3
2017-05-06T12:35:02.068Z,13.5
2017-05-06T12:40:01.298Z,13.5
2017-05-06T12:45:01.686Z,13.6
2017-05-06T12:50:01.519Z,13.7
2017-05-06T12:55:01.340Z,13.6
2017-05-06T13:00:01.266Z,13.6
2017-05-06T13:05:01.793Z,13.8
2017-05-06T13:10:01.821Z,13.9
2017-05-06T13:15:01.830Z,13.9
2017-05-06T13:20:11.824Z,14
2017-05-06T13:25:02.002Z,14.1
2017-05-06T13:30:01.737Z,14.1
2017-05-06T13:35:01.667Z,14.1
2017-05-06T13:40:01.647Z,14.1
2017-05-06T13:45:01.708Z,14.1
2017-05-06T13:50:02.198Z,14.1
2017-05-06T13:55:02.032Z,14.1
2017-05-06T14:00:01.388Z,14.1
2017-05-06T14:05:01.682Z,14.1
2017-05-06T14:10:02.185Z,14.1
2017-05-06T14:15:01.596Z,14
2017-05-06T14:20:01.322Z,13.9
2017-05-06T14:25:01.299Z,13.9
2017-05-06T14:30:01.433Z,13.7
2017-05-06T14:35:02.046Z,13.7
2017-05-06T14:40:02.119Z,13.6
2017-05-06T14:45:01.601Z,13.5
2017-05-06T14:50:02.126Z,13.5
2017-05-06T14:55:01.287Z,13.5
2017-05-06T15:00:01.392Z,13.4
2017-05-06T15:05:01.752Z,13.3
2017-05-06T15:10:01.678Z,13.3
2017-05-06T15:15:01.828Z,13.2
2017-05-06T15:20:01.469Z,13.2
2017-05-06T15:25:01.845Z,13.2
2017-05-06T15:30:01.933Z,13.2
2017-05-06T15:35:01.609Z,13.2
2017-05-06T15:40:02.134Z,13.2
2017-05-06T15:45:01.666Z,13.2
2017-05-06T15:50:01.913Z,13
2017-05-06T15:55:01.611Z,13
2017-05-06T16:00:01.359Z,13
2017-05-06T16:05:01.648Z,12.9
2017-05-06T16:10:02.064Z,12.8
2017-05-06T16:15:01.364Z,12.8
2017-05-06T16:20:02.610Z,12.6
2017-05-06T16:25:01.809Z,12.5
2017-05-06T16:30:01.375Z,12.5
2017-05-06T16:35:01.581Z,12.5
2017-05-06T16:40:01.547Z,12.5
2017-05-06T16:45:01.740Z,12.5
2017-05-06T16:50:01.917Z,12.6
2017-05-06T16:55:01.583Z,12.6
2017-05-06T17:00:02.092Z,12.6
2017-05-06T17:05:02.052Z,12.6
2017-05-06T17:10:02.269Z,12.7
2017-05-06T17:15:01.852Z,12.8
2017-05-06T17:20:01.449Z,12.8
2017-05-06T17:25:01.630Z,12.8
2017-05-06T17:30:01.324Z,12.8
2017-05-06T17:35:01.752Z,12.8
2017-05-06T17:40:01.407Z,12.7
2017-05-06T17:45:02.084Z,12.7
2017-05-06T17:50:01.604Z,12.6
2017-05-06T17:55:01.927Z,12.5
2017-05-06T18:00:01.482Z,12.4
2017-05-06T18:05:01.388Z,12.4
2017-05-06T18:10:01.841Z,12.4
2017-05-06T18:15:02.087Z,12.1
2017-05-06T18:20:01.538Z,12
2017-05-06T18:25:01.728Z,12
2017-05-06T18:30:01.884Z,12
2017-05-06T18:35:01.997Z,12
2017-05-06T18:40:02.363Z,12
2017-05-06T18:45:02.079Z,11.8
2017-05-06T18:50:01.844Z,11.7
2017-05-06T18:55:02.137Z,11.6
2017-05-06T19:00:01.805Z,11.6
2017-05-06T19:05:01.355Z,11.6
2017-05-06T19:10:02.167Z,11.6
2017-05-06T19:15:01.179Z,11.5
2017-05-06T19:20:02.093Z,11.5
2017-05-06T19:25:01.586Z,11.5
2017-05-06T19:30:02.032Z,11.5
2017-05-06T19:35:02.286Z,11.2
2017-05-06T19:40:01.952Z,11.2
2017-05-06T19:45:01.341Z,11.1
2017-05-06T19:50:02.163Z,11.1
2017-05-06T19:55:02.036Z,11
2017-05-06T20:00:01.418Z,10.9
2017-05-06T20:05:02.138Z,10.9
2017-05-06T20:10:02.118Z,10.9
2017-05-06T20:15:01.642Z,10.8
2017-05-06T20:20:01.384Z,10.8
2017-05-06T20:25:01.333Z,10.8
2017-05-06T20:30:02.143Z,10.8
2017-05-06T20:35:02.232Z,10.8
2017-05-06T20:40:01.879Z,10.7
2017-05-06T20:45:01.558Z,10.6
2017-05-06T20:50:01.333Z,10.6
2017-05-06T20:55:02.256Z,10.6
2017-05-06T21:00:01.974Z,10.5
2017-05-06T21:05:01.395Z,10.5
2017-05-06T21:10:01.487Z,10.4
2017-05-06T21:15:01.994Z,10.4
2017-05-06T21:20:01.718Z,10.4
2017-05-06T21:25:02.049Z,10.4
2017-05-06T21:30:02.175Z,10.4
2017-05-06T21:35:01.967Z,10.3
2017-05-06T21:40:01.793Z,10.2
2017-05-06T21:45:01.238Z,10.3
2017-05-06T21:50:01.372Z,10.2
2017-05-06T21:55:02.696Z,10.2
2017-05-06T22:00:02.075Z,10.1
2017-05-06T22:05:03.036Z,10.1
2017-05-06T22:10:02.585Z,10
2017-05-06T22:15:02.177Z,10
2017-05-06T22:20:01.897Z,10
2017-05-06T22:25:01.703Z,10
2017-05-06T22:30:02.633Z,10
2017-05-06T22:35:01.391Z,10
2017-05-06T22:40:02.138Z,10
2017-05-06T22:45:01.550Z,10
2017-05-06T22:50:01.223Z,10
2017-05-06T22:55:02.413Z,10
2017-05-06T23:00:01.611Z,10
2017-05-06T23:05:02.048Z,10
2017-05-06T23:10:01.970Z,10
2017-05-06T23:15:01.293Z,9.9
2017-05-06T23:20:02.256Z,9.9
2017-05-06T23:25:07.761Z,9.9
2017-05-06T23:30:02.125Z,9.9
2017-05-06T23:35:01.171Z,9.9
2017-05-06T23:40:02.026Z,9.9
2017-05-06T23:45:01.324Z,10
2017-05-06T23:50:01.648Z,9.9
2017-05-06T23:55:01.528Z,10
